< < Back
Terminal Aerodrome Forecast


Current Version              Previous Versions:   1  2  3  4  5  6  7  8  9  

Terminal Aerodrome Forecast

385
FTUS42 KGSP 042359 AAB
TAFAVL
TAF AMD
KAVL 042359Z 0500/0524 18010G18KT P6SM BKN060
     FM050300 32007KT P6SM BKN060
     FM050600 33009KT P6SM -RA OVC030
     FM051100 35011G19KT 4SM -RA BR OVC008
     FM051400 35012G20KT 2SM -RA BR OVC008
     FM051700 36010G18KT 3SM -RA BR OVC008
      TEMPO 0520/0522 4SM -FZRA BR OVC015
     FM052200 35010KT 4SM BR OVC015=



Latest METAR

403
SAUS70 KWBC 042358
MTRAVL
METAR KAVL 042354Z 18011KT 10SM SCT065 18/12 A2990 RMK AO2 SLP108
T01780122 10239 20178 53008


USA.gov is the U.S. government's official web portal to all federal, state and local government web resources and services.